sensor_id;sensor_type;location;lat;lon;timestamp;P1;durP1;ratioP1;P2;durP2;ratioP2
16522;SDS011;19889;52.546;13.348;2024-01-06T00:02:26;38.77;;;22.27;;
16522;SDS011;19889;52.546;13.348;2024-01-06T00:04:53;35.93;;;23.37;;
16522;SDS011;19889;52.546;13.348;2024-01-06T00:07:20;35.90;;;21.87;;
16522;SDS011;19889;52.546;13.348;2024-01-06T00:09:47;39.53;;;23.27;;
16522;SDS011;19889;52.546;13.348;2024-01-06T00:12:15;38.77;;;22.37;;
16522;SDS011;19889;52.546;13.348;2024-01-06T00:14:45;43.27;;;23.30;;
16522;SDS011;19889;52.546;13.348;2024-01-06T00:17:12;36.00;;;21.70;;
16522;SDS011;19889;52.546;13.348;2024-01-06T00:19:39;39.53;;;23.23;;
16522;SDS011;19889;52.546;13.348;2024-01-06T00:22:06;35.20;;;22.47;;
16522;SDS011;19889;52.546;13.348;2024-01-06T00:24:34;42.30;;;24.63;;
16522;SDS011;19889;52.546;13.348;2024-01-06T00:27:01;39.13;;;23.33;;
16522;SDS011;19889;52.546;13.348;2024-01-06T00:29:28;36.73;;;22.23;;
16522;SDS011;19889;52.546;13.348;2024-01-06T00:31:57;36.17;;;23.43;;
16522;SDS011;19889;52.546;13.348;2024-01-06T00:34:24;35.50;;;22.70;;
16522;SDS011;19889;52.546;13.348;2024-01-06T00:36:52;36.50;;;22.53;;
16522;SDS011;19889;52.546;13.348;2024-01-06T00:39:19;40.57;;;23.67;;
16522;SDS011;19889;52.546;13.348;2024-01-06T00:41:47;38.30;;;21.87;;
16522;SDS011;19889;52.546;13.348;2024-01-06T00:44:14;41.10;;;23.67;;
16522;SDS011;19889;52.546;13.348;2024-01-06T00:46:41;33.90;;;21.33;;
16522;SDS011;19889;52.546;13.348;2024-01-06T00:49:10;38.90;;;22.40;;
16522;SDS011;19889;52.546;13.348;2024-01-06T00:51:37;36.43;;;21.93;;
16522;SDS011;19889;52.546;13.348;2024-01-06T00:54:04;40.97;;;23.53;;
16522;SDS011;19889;52.546;13.348;2024-01-06T00:56:31;40.77;;;23.63;;
16522;SDS011;19889;52.546;13.348;2024-01-06T00:58:59;38.40;;;22.97;;
16522;SDS011;19889;52.546;13.348;2024-01-06T01:01:26;37.63;;;20.93;;
16522;SDS011;19889;52.546;13.348;2024-01-06T01:03:53;34.13;;;20.47;;
16522;SDS011;19889;52.546;13.348;2024-01-06T01:06:22;41.10;;;22.77;;
16522;SDS011;19889;52.546;13.348;2024-01-06T01:08:49;36.17;;;21.27;;
16522;SDS011;19889;52.546;13.348;2024-01-06T01:11:16;39.80;;;22.83;;
16522;SDS011;19889;52.546;13.348;2024-01-06T01:13:44;37.90;;;22.87;;
16522;SDS011;19889;52.546;13.348;2024-01-06T01:16:12;36.97;;;20.67;;
16522;SDS011;19889;52.546;13.348;2024-01-06T01:18:39;36.20;;;21.57;;
16522;SDS011;19889;52.546;13.348;2024-01-06T01:21:06;37.00;;;23.13;;
16522;SDS011;19889;52.546;13.348;2024-01-06T01:23:35;32.33;;;20.07;;
16522;SDS011;19889;52.546;13.348;2024-01-06T01:26:02;40.77;;;21.50;;
16522;SDS011;19889;52.546;13.348;2024-01-06T01:28:30;34.87;;;21.47;;
16522;SDS011;19889;52.546;13.348;2024-01-06T01:30:57;33.40;;;20.80;;
16522;SDS011;19889;52.546;13.348;2024-01-06T01:33:25;35.63;;;20.83;;
16522;SDS011;19889;52.546;13.348;2024-01-06T01:35:52;35.83;;;20.27;;
16522;SDS011;19889;52.546;13.348;2024-01-06T01:38:19;31.73;;;20.03;;
16522;SDS011;19889;52.546;13.348;2024-01-06T01:40:48;34.73;;;20.33;;
16522;SDS011;19889;52.546;13.348;2024-01-06T01:43:16;33.77;;;20.77;;
16522;SDS011;19889;52.546;13.348;2024-01-06T01:45:44;32.73;;;20.50;;
16522;SDS011;19889;52.546;13.348;2024-01-06T01:48:14;35.20;;;19.80;;
16522;SDS011;19889;52.546;13.348;2024-01-06T01:50:42;36.83;;;21.13;;
16522;SDS011;19889;52.546;13.348;2024-01-06T01:53:09;32.93;;;20.23;;
16522;SDS011;19889;52.546;13.348;2024-01-06T01:55:37;32.07;;;20.77;;
16522;SDS011;19889;52.546;13.348;2024-01-06T01:58:06;38.97;;;21.70;;
16522;SDS011;19889;52.546;13.348;2024-01-06T02:00:34;32.00;;;20.73;;
16522;SDS011;19889;52.546;13.348;2024-01-06T02:03:01;35.10;;;21.70;;
16522;SDS011;19889;52.546;13.348;2024-01-06T02:05:31;32.43;;;19.37;;
16522;SDS011;19889;52.546;13.348;2024-01-06T02:07:58;33.20;;;20.07;;
16522;SDS011;19889;52.546;13.348;2024-01-06T02:10:25;28.63;;;17.83;;
16522;SDS011;19889;52.546;13.348;2024-01-06T02:12:53;33.83;;;19.30;;
16522;SDS011;19889;52.546;13.348;2024-01-06T02:15:22;31.47;;;19.97;;
16522;SDS011;19889;52.546;13.348;2024-01-06T02:17:49;33.00;;;19.00;;
16522;SDS011;19889;52.546;13.348;2024-01-06T02:20:17;36.83;;;21.07;;
16522;SDS011;19889;52.546;13.348;2024-01-06T02:22:47;31.17;;;18.30;;
16522;SDS011;19889;52.546;13.348;2024-01-06T02:25:15;32.47;;;19.37;;
16522;SDS011;19889;52.546;13.348;2024-01-06T02:27:42;32.97;;;17.70;;
16522;SDS011;19889;52.546;13.348;2024-01-06T02:30:10;30.10;;;18.20;;
16522;SDS011;19889;52.546;13.348;2024-01-06T02:32:37;33.40;;;19.20;;
16522;SDS011;19889;52.546;13.348;2024-01-06T02:35:05;31.37;;;19.67;;
16522;SDS011;19889;52.546;13.348;2024-01-06T02:37:32;36.83;;;19.97;;
16522;SDS011;19889;52.546;13.348;2024-01-06T02:40:01;35.63;;;20.53;;
16522;SDS011;19889;52.546;13.348;2024-01-06T02:42:29;30.10;;;18.13;;
16522;SDS011;19889;52.546;13.348;2024-01-06T02:44:56;31.73;;;18.70;;
16522;SDS011;19889;52.546;13.348;2024-01-06T02:47:25;33.93;;;19.83;;
16522;SDS011;19889;52.546;13.348;2024-01-06T02:49:52;31.07;;;18.77;;
16522;SDS011;19889;52.546;13.348;2024-01-06T02:52:20;33.17;;;19.33;;
16522;SDS011;19889;52.546;13.348;2024-01-06T02:54:48;33.77;;;18.30;;
16522;SDS011;19889;52.546;13.348;2024-01-06T02:57:16;31.03;;;17.33;;
16522;SDS011;19889;52.546;13.348;2024-01-06T02:59:44;35.10;;;20.80;;
16522;SDS011;19889;52.546;13.348;2024-01-06T03:02:12;32.83;;;18.10;;
16522;SDS011;19889;52.546;13.348;2024-01-06T03:04:39;33.13;;;18.77;;
16522;SDS011;19889;52.546;13.348;2024-01-06T03:07:07;34.30;;;19.67;;
16522;SDS011;19889;52.546;13.348;2024-01-06T03:09:34;33.17;;;18.80;;
16522;SDS011;19889;52.546;13.348;2024-01-06T03:12:02;31.83;;;19.63;;
16522;SDS011;19889;52.546;13.348;2024-01-06T03:14:32;34.97;;;19.40;;
16522;SDS011;19889;52.546;13.348;2024-01-06T03:16:59;32.63;;;20.00;;
16522;SDS011;19889;52.546;13.348;2024-01-06T03:19:28;33.47;;;19.90;;
16522;SDS011;19889;52.546;13.348;2024-01-06T03:21:55;33.37;;;18.70;;
16522;SDS011;19889;52.546;13.348;2024-01-06T03:24:22;32.47;;;19.23;;
16522;SDS011;19889;52.546;13.348;2024-01-06T03:26:51;36.43;;;22.17;;
16522;SDS011;19889;52.546;13.348;2024-01-06T03:29:18;29.37;;;17.83;;
16522;SDS011;19889;52.546;13.348;2024-01-06T03:31:46;35.10;;;20.43;;
16522;SDS011;19889;52.546;13.348;2024-01-06T03:34:14;31.53;;;19.13;;
16522;SDS011;19889;52.546;13.348;2024-01-06T03:36:41;31.37;;;19.60;;
16522;SDS011;19889;52.546;13.348;2024-01-06T03:39:08;31.13;;;19.93;;
16522;SDS011;19889;52.546;13.348;2024-01-06T03:41:38;33.43;;;19.70;;
16522;SDS011;19889;52.546;13.348;2024-01-06T03:44:05;34.57;;;18.73;;
16522;SDS011;19889;52.546;13.348;2024-01-06T03:46:33;32.20;;;20.40;;
16522;SDS011;19889;52.546;13.348;2024-01-06T03:49:03;35.57;;;19.23;;
16522;SDS011;19889;52.546;13.348;2024-01-06T03:51:30;33.53;;;19.37;;
16522;SDS011;19889;52.546;13.348;2024-01-06T03:53:57;35.83;;;19.87;;
16522;SDS011;19889;52.546;13.348;2024-01-06T03:56:24;35.03;;;19.07;;
16522;SDS011;19889;52.546;13.348;2024-01-06T03:58:52;34.27;;;20.23;;
16522;SDS011;19889;52.546;13.348;2024-01-06T04:01:19;50.00;;;26.00;;
16522;SDS011;19889;52.546;13.348;2024-01-06T04:03:47;36.73;;;21.43;;
16522;SDS011;19889;52.546;13.348;2024-01-06T04:06:15;37.47;;;20.33;;
16522;SDS011;19889;52.546;13.348;2024-01-06T04:08:43;35.70;;;18.40;;
16522;SDS011;19889;52.546;13.348;2024-01-06T04:11:10;34.73;;;19.47;;
16522;SDS011;19889;52.546;13.348;2024-01-06T04:13:37;34.63;;;20.47;;
16522;SDS011;19889;52.546;13.348;2024-01-06T04:16:04;41.77;;;24.00;;
16522;SDS011;19889;52.546;13.348;2024-01-06T04:18:32;39.23;;;21.33;;
16522;SDS011;19889;52.546;13.348;2024-01-06T04:20:59;36.20;;;20.63;;
16522;SDS011;19889;52.546;13.348;2024-01-06T04:23:28;32.97;;;20.27;;
16522;SDS011;19889;52.546;13.348;2024-01-06T04:25:55;48.77;;;26.00;;
16522;SDS011;19889;52.546;13.348;2024-01-06T04:28:22;38.87;;;20.97;;
16522;SDS011;19889;52.546;13.348;2024-01-06T04:30:50;39.13;;;22.77;;
16522;SDS011;19889;52.546;13.348;2024-01-06T04:33:17;38.83;;;24.70;;
16522;SDS011;19889;52.546;13.348;2024-01-06T04:35:44;33.40;;;21.20;;
16522;SDS011;19889;52.546;13.348;2024-01-06T04:38:11;35.03;;;19.87;;
16522;SDS011;19889;52.546;13.348;2024-01-06T04:40:40;35.23;;;19.80;;
16522;SDS011;19889;52.546;13.348;2024-01-06T04:43:08;34.20;;;19.97;;
16522;SDS011;19889;52.546;13.348;2024-01-06T04:45:35;35.43;;;21.57;;
16522;SDS011;19889;52.546;13.348;2024-01-06T04:48:03;34.67;;;19.67;;
16522;SDS011;19889;52.546;13.348;2024-01-06T04:50:31;31.97;;;20.57;;
16522;SDS011;19889;52.546;13.348;2024-01-06T04:52:58;40.23;;;20.70;;
16522;SDS011;19889;52.546;13.348;2024-01-06T04:55:25;39.50;;;21.37;;
16522;SDS011;19889;52.546;13.348;2024-01-06T04:57:54;36.53;;;21.10;;
16522;SDS011;19889;52.546;13.348;2024-01-06T05:00:21;34.77;;;21.70;;
16522;SDS011;19889;52.546;13.348;2024-01-06T05:02:49;38.13;;;21.40;;
16522;SDS011;19889;52.546;13.348;2024-01-06T05:05:16;40.63;;;22.73;;
16522;SDS011;19889;52.546;13.348;2024-01-06T05:07:44;35.23;;;21.37;;
16522;SDS011;19889;52.546;13.348;2024-01-06T05:10:11;37.00;;;21.37;;
16522;SDS011;19889;52.546;13.348;2024-01-06T05:12:38;37.77;;;22.10;;
16522;SDS011;19889;52.546;13.348;2024-01-06T05:15:07;37.43;;;20.90;;
16522;SDS011;19889;52.546;13.348;2024-01-06T05:17:35;34.20;;;21.47;;
16522;SDS011;19889;52.546;13.348;2024-01-06T05:20:03;41.37;;;21.93;;
16522;SDS011;19889;52.546;13.348;2024-01-06T05:22:31;38.60;;;21.33;;
16522;SDS011;19889;52.546;13.348;2024-01-06T05:24:59;45.97;;;23.70;;
16522;SDS011;19889;52.546;13.348;2024-01-06T05:27:26;38.67;;;21.87;;
16522;SDS011;19889;52.546;13.348;2024-01-06T05:29:53;42.00;;;23.83;;
16522;SDS011;19889;52.546;13.348;2024-01-06T05:32:22;40.57;;;22.57;;
16522;SDS011;19889;52.546;13.348;2024-01-06T05:34:49;46.47;;;24.67;;
16522;SDS011;19889;52.546;13.348;2024-01-06T05:37:16;41.57;;;23.10;;
16522;SDS011;19889;52.546;13.348;2024-01-06T05:39:43;41.00;;;21.10;;
16522;SDS011;19889;52.546;13.348;2024-01-06T05:42:09;39.90;;;22.77;;
16522;SDS011;19889;52.546;13.348;2024-01-06T05:44:37;39.27;;;22.20;;
16522;SDS011;19889;52.546;13.348;2024-01-06T05:47:05;39.80;;;22.20;;
16522;SDS011;19889;52.546;13.348;2024-01-06T05:49:34;46.80;;;23.43;;
16522;SDS011;19889;52.546;13.348;2024-01-06T05:52:02;47.70;;;24.90;;
16522;SDS011;19889;52.546;13.348;2024-01-06T05:54:29;38.13;;;23.13;;
16522;SDS011;19889;52.546;13.348;2024-01-06T05:56:57;38.37;;;21.40;;
16522;SDS011;19889;52.546;13.348;2024-01-06T05:59:25;39.10;;;21.90;;
16522;SDS011;19889;52.546;13.348;2024-01-06T06:01:52;40.40;;;22.90;;
16522;SDS011;19889;52.546;13.348;2024-01-06T06:04:19;41.77;;;22.73;;
16522;SDS011;19889;52.546;13.348;2024-01-06T06:06:47;41.97;;;24.90;;
16522;SDS011;19889;52.546;13.348;2024-01-06T06:09:15;38.47;;;21.03;;
16522;SDS011;19889;52.546;13.348;2024-01-06T06:11:42;39.20;;;21.87;;
16522;SDS011;19889;52.546;13.348;2024-01-06T06:14:09;42.27;;;21.60;;
16522;SDS011;19889;52.546;13.348;2024-01-06T06:16:38;38.23;;;22.03;;
16522;SDS011;19889;52.546;13.348;2024-01-06T06:19:05;36.13;;;20.53;;
16522;SDS011;19889;52.546;13.348;2024-01-06T06:21:33;39.43;;;22.33;;
16522;SDS011;19889;52.546;13.348;2024-01-06T06:24:02;38.37;;;21.47;;
16522;SDS011;19889;52.546;13.348;2024-01-06T06:26:30;46.40;;;21.27;;
16522;SDS011;19889;52.546;13.348;2024-01-06T06:28:57;40.40;;;21.17;;
16522;SDS011;19889;52.546;13.348;2024-01-06T06:31:25;34.47;;;20.97;;
16522;SDS011;19889;52.546;13.348;2024-01-06T06:33:53;35.33;;;19.27;;
16522;SDS011;19889;52.546;13.348;2024-01-06T06:36:20;41.30;;;21.13;;
16522;SDS011;19889;52.546;13.348;2024-01-06T06:38:47;38.30;;;20.83;;
16522;SDS011;19889;52.546;13.348;2024-01-06T06:41:15;38.57;;;21.10;;
16522;SDS011;19889;52.546;13.348;2024-01-06T06:43:43;36.53;;;21.13;;
16522;SDS011;19889;52.546;13.348;2024-01-06T06:46:10;40.73;;;20.40;;
16522;SDS011;19889;52.546;13.348;2024-01-06T06:48:37;38.37;;;22.53;;
16522;SDS011;19889;52.546;13.348;2024-01-06T06:51:05;43.83;;;22.57;;
16522;SDS011;19889;52.546;13.348;2024-01-06T06:53:33;41.13;;;19.37;;
16522;SDS011;19889;52.546;13.348;2024-01-06T06:56:00;37.20;;;21.23;;
16522;SDS011;19889;52.546;13.348;2024-01-06T06:58:29;41.77;;;22.00;;
16522;SDS011;19889;52.546;13.348;2024-01-06T07:00:56;37.03;;;19.30;;
16522;SDS011;19889;52.546;13.348;2024-01-06T07:03:24;37.17;;;20.37;;
16522;SDS011;19889;52.546;13.348;2024-01-06T07:05:52;42.00;;;21.33;;
16522;SDS011;19889;52.546;13.348;2024-01-06T07:08:19;42.13;;;20.03;;
16522;SDS011;19889;52.546;13.348;2024-01-06T07:10:46;32.37;;;19.80;;
16522;SDS011;19889;52.546;13.348;2024-01-06T07:13:13;36.30;;;21.13;;
16522;SDS011;19889;52.546;13.348;2024-01-06T07:15:42;39.00;;;20.70;;
16522;SDS011;19889;52.546;13.348;2024-01-06T07:18:10;36.37;;;19.93;;
16522;SDS011;19889;52.546;13.348;2024-01-06T07:20:37;41.60;;;19.97;;
16522;SDS011;19889;52.546;13.348;2024-01-06T07:23:04;42.73;;;20.73;;
16522;SDS011;19889;52.546;13.348;2024-01-06T07:25:31;43.60;;;21.27;;
16522;SDS011;19889;52.546;13.348;2024-01-06T07:27:59;49.27;;;21.43;;
16522;SDS011;19889;52.546;13.348;2024-01-06T07:30:26;40.90;;;21.07;;
16522;SDS011;19889;52.546;13.348;2024-01-06T07:32:54;44.07;;;21.77;;
16522;SDS011;19889;52.546;13.348;2024-01-06T07:35:21;42.30;;;21.30;;
16522;SDS011;19889;52.546;13.348;2024-01-06T07:37:48;43.73;;;23.10;;
16522;SDS011;19889;52.546;13.348;2024-01-06T07:40:16;47.67;;;23.43;;
16522;SDS011;19889;52.546;13.348;2024-01-06T07:42:43;43.53;;;23.33;;
16522;SDS011;19889;52.546;13.348;2024-01-06T07:45:11;44.53;;;23.57;;
16522;SDS011;19889;52.546;13.348;2024-01-06T07:47:38;49.67;;;23.53;;
16522;SDS011;19889;52.546;13.348;2024-01-06T07:50:07;45.03;;;22.17;;
16522;SDS011;19889;52.546;13.348;2024-01-06T07:52:35;45.70;;;23.70;;
16522;SDS011;19889;52.546;13.348;2024-01-06T07:55:03;42.73;;;21.77;;
16522;SDS011;19889;52.546;13.348;2024-01-06T07:57:30;45.53;;;23.37;;
16522;SDS011;19889;52.546;13.348;2024-01-06T07:59:58;69.57;;;36.27;;
16522;SDS011;19889;52.546;13.348;2024-01-06T08:02:26;46.93;;;24.07;;
16522;SDS011;19889;52.546;13.348;2024-01-06T08:04:53;42.57;;;22.90;;
16522;SDS011;19889;52.546;13.348;2024-01-06T08:07:22;43.77;;;22.30;;
16522;SDS011;19889;52.546;13.348;2024-01-06T08:09:49;41.33;;;21.83;;
16522;SDS011;19889;52.546;13.348;2024-01-06T08:12:16;38.87;;;20.60;;
16522;SDS011;19889;52.546;13.348;2024-01-06T08:14:44;44.00;;;21.40;;
16522;SDS011;19889;52.546;13.348;2024-01-06T08:17:11;41.77;;;22.40;;
16522;SDS011;19889;52.546;13.348;2024-01-06T08:19:38;48.87;;;22.93;;
16522;SDS011;19889;52.546;13.348;2024-01-06T08:22:07;46.13;;;22.93;;
16522;SDS011;19889;52.546;13.348;2024-01-06T08:24:35;40.53;;;21.20;;
16522;SDS011;19889;52.546;13.348;2024-01-06T08:27:02;44.53;;;23.73;;
16522;SDS011;19889;52.546;13.348;2024-01-06T08:29:30;40.60;;;21.27;;
16522;SDS011;19889;52.546;13.348;2024-01-06T08:31:57;41.33;;;21.10;;
16522;SDS011;19889;52.546;13.348;2024-01-06T08:34:25;39.17;;;21.63;;
16522;SDS011;19889;52.546;13.348;2024-01-06T08:36:52;43.70;;;22.40;;
16522;SDS011;19889;52.546;13.348;2024-01-06T08:39:19;42.37;;;22.33;;
16522;SDS011;19889;52.546;13.348;2024-01-06T08:41:48;47.07;;;23.73;;
16522;SDS011;19889;52.546;13.348;2024-01-06T08:44:16;47.97;;;24.40;;
16522;SDS011;19889;52.546;13.348;2024-01-06T08:46:43;47.07;;;25.40;;
16522;SDS011;19889;52.546;13.348;2024-01-06T08:49:10;46.40;;;24.10;;
16522;SDS011;19889;52.546;13.348;2024-01-06T08:51:38;44.57;;;21.87;;
16522;SDS011;19889;52.546;13.348;2024-01-06T08:54:05;40.47;;;23.57;;
16522;SDS011;19889;52.546;13.348;2024-01-06T08:56:33;40.80;;;22.53;;
16522;SDS011;19889;52.546;13.348;2024-01-06T08:59:02;37.70;;;21.17;;
16522;SDS011;19889;52.546;13.348;2024-01-06T09:01:29;38.20;;;21.40;;
16522;SDS011;19889;52.546;13.348;2024-01-06T09:03:58;39.43;;;22.73;;
16522;SDS011;19889;52.546;13.348;2024-01-06T09:06:25;34.07;;;20.30;;
16522;SDS011;19889;52.546;13.348;2024-01-06T09:08:52;38.23;;;20.23;;
16522;SDS011;19889;52.546;13.348;2024-01-06T09:11:19;37.97;;;21.37;;
16522;SDS011;19889;52.546;13.348;2024-01-06T09:13:46;41.33;;;22.30;;
16522;SDS011;19889;52.546;13.348;2024-01-06T09:16:15;38.43;;;20.77;;
16522;SDS011;19889;52.546;13.348;2024-01-06T09:18:42;39.30;;;21.60;;
16522;SDS011;19889;52.546;13.348;2024-01-06T09:21:09;37.80;;;21.40;;
16522;SDS011;19889;52.546;13.348;2024-01-06T09:23:37;46.97;;;23.47;;
16522;SDS011;19889;52.546;13.348;2024-01-06T09:26:04;43.07;;;21.07;;
16522;SDS011;19889;52.546;13.348;2024-01-06T09:28:31;40.47;;;22.60;;
16522;SDS011;19889;52.546;13.348;2024-01-06T09:30:58;40.30;;;22.63;;
16522;SDS011;19889;52.546;13.348;2024-01-06T09:33:27;41.40;;;22.80;;
16522;SDS011;19889;52.546;13.348;2024-01-06T09:35:54;45.70;;;23.77;;
16522;SDS011;19889;52.546;13.348;2024-01-06T09:38:21;43.03;;;23.97;;
16522;SDS011;19889;52.546;13.348;2024-01-06T09:40:49;46.50;;;26.17;;
16522;SDS011;19889;52.546;13.348;2024-01-06T09:43:16;42.40;;;22.10;;
16522;SDS011;19889;52.546;13.348;2024-01-06T09:45:43;43.83;;;22.03;;
16522;SDS011;19889;52.546;13.348;2024-01-06T09:48:15;39.57;;;22.07;;
16522;SDS011;19889;52.546;13.348;2024-01-06T09:50:45;40.10;;;21.63;;
16522;SDS011;19889;52.546;13.348;2024-01-06T09:53:13;37.90;;;21.40;;
16522;SDS011;19889;52.546;13.348;2024-01-06T09:55:40;41.00;;;22.20;;
16522;SDS011;19889;52.546;13.348;2024-01-06T09:58:09;35.43;;;19.67;;
16522;SDS011;19889;52.546;13.348;2024-01-06T10:00:37;39.43;;;22.20;;
16522;SDS011;19889;52.546;13.348;2024-01-06T10:03:04;35.33;;;20.17;;
16522;SDS011;19889;52.546;13.348;2024-01-06T10:05:33;34.70;;;19.07;;
16522;SDS011;19889;52.546;13.348;2024-01-06T10:08:03;39.50;;;22.10;;
16522;SDS011;19889;52.546;13.348;2024-01-06T10:10:30;38.33;;;21.97;;
16522;SDS011;19889;52.546;13.348;2024-01-06T10:13:00;30.73;;;19.03;;
16522;SDS011;19889;52.546;13.348;2024-01-06T10:15:28;35.93;;;21.13;;
16522;SDS011;19889;52.546;13.348;2024-01-06T10:17:55;42.03;;;22.57;;
16522;SDS011;19889;52.546;13.348;2024-01-06T10:20:24;37.13;;;21.40;;
16522;SDS011;19889;52.546;13.348;2024-01-06T10:22:52;37.77;;;21.63;;
16522;SDS011;19889;52.546;13.348;2024-01-06T10:25:22;32.47;;;20.50;;
16522;SDS011;19889;52.546;13.348;2024-01-06T10:27:52;35.00;;;21.00;;
16522;SDS011;19889;52.546;13.348;2024-01-06T10:30:20;41.10;;;25.00;;
16522;SDS011;19889;52.546;13.348;2024-01-06T10:32:47;39.53;;;23.10;;
16522;SDS011;19889;52.546;13.348;2024-01-06T10:35:16;38.10;;;23.37;;
16522;SDS011;19889;52.546;13.348;2024-01-06T10:37:44;37.50;;;22.83;;
16522;SDS011;19889;52.546;13.348;2024-01-06T10:40:12;32.87;;;19.87;;
16522;SDS011;19889;52.546;13.348;2024-01-06T10:42:43;47.90;;;27.03;;
16522;SDS011;19889;52.546;13.348;2024-01-06T10:45:11;44.87;;;25.73;;
16522;SDS011;19889;52.546;13.348;2024-01-06T10:47:41;39.00;;;22.23;;
16522;SDS011;19889;52.546;13.348;2024-01-06T10:50:09;35.47;;;20.47;;
16522;SDS011;19889;52.546;13.348;2024-01-06T10:52:38;34.00;;;21.37;;
16522;SDS011;19889;52.546;13.348;2024-01-06T10:55:06;38.33;;;21.40;;
16522;SDS011;19889;52.546;13.348;2024-01-06T10:57:33;37.80;;;19.27;;
16522;SDS011;19889;52.546;13.348;2024-01-06T11:00:06;33.93;;;20.67;;
16522;SDS011;19889;52.546;13.348;2024-01-06T11:02:35;34.70;;;20.07;;
16522;SDS011;19889;52.546;13.348;2024-01-06T11:05:03;38.33;;;21.83;;
16522;SDS011;19889;52.546;13.348;2024-01-06T11:07:33;43.87;;;26.30;;
16522;SDS011;19889;52.546;13.348;2024-01-06T11:10:02;37.17;;;22.77;;
16522;SDS011;19889;52.546;13.348;2024-01-06T11:12:33;35.27;;;19.63;;
16522;SDS011;19889;52.546;13.348;2024-01-06T11:15:00;37.00;;;21.47;;
16522;SDS011;19889;52.546;13.348;2024-01-06T11:20:20;32.23;;;20.53;;
16522;SDS011;19889;52.546;13.348;2024-01-06T11:22:48;34.03;;;20.33;;
16522;SDS011;19889;52.546;13.348;2024-01-06T11:25:16;35.40;;;20.80;;
16522;SDS011;19889;52.546;13.348;2024-01-06T11:27:45;33.90;;;22.00;;
16522;SDS011;19889;52.546;13.348;2024-01-06T11:30:20;32.90;;;21.13;;
16522;SDS011;19889;52.546;13.348;2024-01-06T11:32:48;34.47;;;19.73;;
16522;SDS011;19889;52.546;13.348;2024-01-06T11:35:20;33.60;;;20.33;;
16522;SDS011;19889;52.546;13.348;2024-01-06T11:37:53;32.40;;;19.97;;
16522;SDS011;19889;52.546;13.348;2024-01-06T11:40:29;37.97;;;20.90;;
16522;SDS011;19889;52.546;13.348;2024-01-06T11:43:02;32.13;;;19.23;;
16522;SDS011;19889;52.546;13.348;2024-01-06T11:45:32;33.53;;;20.27;;
16522;SDS011;19889;52.546;13.348;2024-01-06T11:48:02;34.03;;;19.80;;
16522;SDS011;19889;52.546;13.348;2024-01-06T11:50:31;32.50;;;21.77;;
16522;SDS011;19889;52.546;13.348;2024-01-06T11:53:01;31.57;;;20.43;;
16522;SDS011;19889;52.546;13.348;2024-01-06T11:55:30;45.13;;;26.87;;
16522;SDS011;19889;52.546;13.348;2024-01-06T11:57:58;41.80;;;24.47;;
16522;SDS011;19889;52.546;13.348;2024-01-06T12:00:28;36.67;;;21.47;;
16522;SDS011;19889;52.546;13.348;2024-01-06T12:02:57;38.23;;;22.93;;
16522;SDS011;19889;52.546;13.348;2024-01-06T12:05:29;32.33;;;21.50;;
16522;SDS011;19889;52.546;13.348;2024-01-06T12:07:57;32.40;;;19.20;;
16522;SDS011;19889;52.546;13.348;2024-01-06T12:10:27;32.97;;;19.67;;
16522;SDS011;19889;52.546;13.348;2024-01-06T12:12:56;40.93;;;24.67;;
16522;SDS011;19889;52.546;13.348;2024-01-06T12:15:25;34.17;;;20.43;;
16522;SDS011;19889;52.546;13.348;2024-01-06T12:17:52;35.00;;;21.03;;
16522;SDS011;19889;52.546;13.348;2024-01-06T12:20:21;35.83;;;20.73;;
16522;SDS011;19889;52.546;13.348;2024-01-06T12:22:50;33.03;;;21.07;;
16522;SDS011;19889;52.546;13.348;2024-01-06T12:25:20;30.13;;;20.07;;
16522;SDS011;19889;52.546;13.348;2024-01-06T12:27:48;36.27;;;20.73;;
16522;SDS011;19889;52.546;13.348;2024-01-06T12:30:16;33.03;;;19.63;;
16522;SDS011;19889;52.546;13.348;2024-01-06T12:32:45;33.80;;;20.07;;
16522;SDS011;19889;52.546;13.348;2024-01-06T12:35:14;33.23;;;20.83;;
16522;SDS011;19889;52.546;13.348;2024-01-06T12:37:42;37.03;;;20.90;;
16522;SDS011;19889;52.546;13.348;2024-01-06T12:40:12;33.67;;;20.40;;
16522;SDS011;19889;52.546;13.348;2024-01-06T12:42:42;30.03;;;19.20;;
16522;SDS011;19889;52.546;13.348;2024-01-06T12:45:10;31.57;;;19.10;;
16522;SDS011;19889;52.546;13.348;2024-01-06T12:47:38;34.37;;;18.87;;
16522;SDS011;19889;52.546;13.348;2024-01-06T12:50:06;29.57;;;17.90;;
16522;SDS011;19889;52.546;13.348;2024-01-06T12:52:34;30.40;;;18.83;;
16522;SDS011;19889;52.546;13.348;2024-01-06T12:55:03;32.53;;;20.27;;
16522;SDS011;19889;52.546;13.348;2024-01-06T12:57:33;35.63;;;20.77;;
16522;SDS011;19889;52.546;13.348;2024-01-06T13:00:01;33.37;;;19.23;;
16522;SDS011;19889;52.546;13.348;2024-01-06T13:02:29;38.40;;;22.83;;
16522;SDS011;19889;52.546;13.348;2024-01-06T13:04:56;33.17;;;19.47;;
16522;SDS011;19889;52.546;13.348;2024-01-06T13:07:24;27.40;;;19.00;;
16522;SDS011;19889;52.546;13.348;2024-01-06T13:09:52;30.10;;;18.03;;
16522;SDS011;19889;52.546;13.348;2024-01-06T13:12:19;27.10;;;17.87;;
16522;SDS011;19889;52.546;13.348;2024-01-06T13:14:47;31.60;;;19.33;;
16522;SDS011;19889;52.546;13.348;2024-01-06T13:17:16;47.63;;;28.43;;
16522;SDS011;19889;52.546;13.348;2024-01-06T13:19:43;33.73;;;20.63;;
16522;SDS011;19889;52.546;13.348;2024-01-06T13:22:10;33.93;;;18.60;;
16522;SDS011;19889;52.546;13.348;2024-01-06T13:24:38;27.90;;;16.57;;
16522;SDS011;19889;52.546;13.348;2024-01-06T13:27:06;28.40;;;17.87;;
16522;SDS011;19889;52.546;13.348;2024-01-06T13:29:34;29.43;;;17.27;;
16522;SDS011;19889;52.546;13.348;2024-01-06T13:32:03;31.20;;;19.30;;
16522;SDS011;19889;52.546;13.348;2024-01-06T13:34:32;25.47;;;17.20;;
16522;SDS011;19889;52.546;13.348;2024-01-06T13:36:59;28.40;;;17.20;;
16522;SDS011;19889;52.546;13.348;2024-01-06T13:39:27;23.00;;;15.60;;
16522;SDS011;19889;52.546;13.348;2024-01-06T13:41:54;27.13;;;17.00;;
16522;SDS011;19889;52.546;13.348;2024-01-06T13:44:22;26.80;;;17.13;;
16522;SDS011;19889;52.546;13.348;2024-01-06T13:46:49;24.53;;;17.47;;
16522;SDS011;19889;52.546;13.348;2024-01-06T13:49:18;27.50;;;17.77;;
16522;SDS011;19889;52.546;13.348;2024-01-06T13:51:45;30.70;;;17.50;;
16522;SDS011;19889;52.546;13.348;2024-01-06T13:54:13;27.50;;;17.03;;
16522;SDS011;19889;52.546;13.348;2024-01-06T13:56:40;31.67;;;18.17;;
16522;SDS011;19889;52.546;13.348;2024-01-06T13:59:08;25.00;;;16.60;;
16522;SDS011;19889;52.546;13.348;2024-01-06T14:01:35;26.70;;;16.33;;
16522;SDS011;19889;52.546;13.348;2024-01-06T14:04:03;26.80;;;17.00;;
16522;SDS011;19889;52.546;13.348;2024-01-06T14:06:32;25.47;;;15.63;;
16522;SDS011;19889;52.546;13.348;2024-01-06T14:08:59;28.83;;;16.67;;
16522;SDS011;19889;52.546;13.348;2024-01-06T14:11:27;29.87;;;17.73;;
16522;SDS011;19889;52.546;13.348;2024-01-06T14:13:56;23.10;;;14.87;;
16522;SDS011;19889;52.546;13.348;2024-01-06T14:16:24;27.77;;;16.43;;